createdAt,value
2019-03-25T00:00:28.001Z,0
2019-03-25T00:05:28.620Z,0
2019-03-25T00:10:28.294Z,0
2019-03-25T00:15:28.522Z,0
2019-03-25T00:20:27.806Z,0
2019-03-25T00:25:28.036Z,0
2019-03-25T00:30:28.210Z,0
2019-03-25T00:35:28.517Z,0
2019-03-25T00:40:27.833Z,0
2019-03-25T00:45:27.960Z,0
2019-03-25T00:50:28.362Z,0
2019-03-25T00:55:28.557Z,0
2019-03-25T01:00:28.434Z,0
2019-03-25T01:05:28.719Z,0
2019-03-25T01:10:27.810Z,0
2019-03-25T01:15:28.099Z,0
2019-03-25T01:20:28.290Z,0
2019-03-25T01:25:28.536Z,0
2019-03-25T01:30:28.732Z,0
2019-03-25T01:35:28.366Z,0
2019-03-25T01:40:28.519Z,0
2019-03-25T01:45:27.922Z,0
2019-03-25T01:50:28.293Z,0
2019-03-25T01:55:28.680Z,0
2019-03-25T02:00:27.968Z,0
2019-03-25T02:05:28.789Z,0
2019-03-25T02:10:28.137Z,0
2019-03-25T02:15:28.682Z,0
2019-03-25T02:20:28.106Z,0
2019-03-25T02:25:28.244Z,0
2019-03-25T02:30:28.689Z,0
2019-03-25T02:35:28.229Z,0
2019-03-25T02:40:28.419Z,0
2019-03-25T02:45:28.611Z,0
2019-03-25T02:50:28.834Z,0
2019-03-25T02:55:40.494Z,0
2019-03-25T03:00:28.854Z,0
2019-03-25T03:05:28.104Z,0
2019-03-25T03:10:28.106Z,0
2019-03-25T03:15:28.342Z,0
2019-03-25T03:20:27.900Z,0
2019-03-25T03:25:28.260Z,0
2019-03-25T03:30:28.761Z,0
2019-03-25T03:35:28.638Z,0
2019-03-25T03:40:27.986Z,0
2019-03-25T03:45:28.147Z,0
2019-03-25T03:50:28.166Z,0
2019-03-25T03:55:28.563Z,0
2019-03-25T04:00:28.070Z,0
2019-03-25T04:05:28.266Z,0
2019-03-25T04:10:28.914Z,0
2019-03-25T04:15:28.158Z,0
2019-03-25T04:20:28.498Z,0
2019-03-25T04:25:28.690Z,0
2019-03-25T04:30:27.959Z,0
2019-03-25T04:35:28.160Z,0
2019-03-25T04:40:28.545Z,0
2019-03-25T04:45:28.832Z,0
2019-03-25T04:50:28.105Z,0
2019-03-25T04:55:28.506Z,0
2019-03-25T05:00:28.766Z,0
2019-03-25T05:05:28.493Z,0
2019-03-25T05:10:28.711Z,0
2019-03-25T05:15:28.906Z,0
2019-03-25T05:20:27.967Z,0
2019-03-25T05:25:28.232Z,5
2019-03-25T05:30:29.000Z,5
2019-03-25T05:35:29.085Z,16.4
2019-03-25T05:40:28.682Z,16.4
2019-03-25T05:45:29.059Z,45.5
2019-03-25T05:50:28.424Z,45.5
2019-03-25T05:55:28.714Z,60.8
2019-03-25T06:00:28.075Z,60.8
2019-03-25T06:05:28.390Z,35
2019-03-25T06:10:28.620Z,35
2019-03-25T06:15:28.894Z,24.5
2019-03-25T06:20:28.141Z,24.5
2019-03-25T06:25:28.501Z,39.2
2019-03-25T06:30:28.106Z,39.2
2019-03-25T06:35:28.443Z,44.8
2019-03-25T06:40:28.854Z,44.8
2019-03-25T06:45:29.017Z,35.4
2019-03-25T06:50:28.375Z,35.4
2019-03-25T06:55:28.951Z,51
2019-03-25T07:00:29.086Z,51
2019-03-25T07:05:28.675Z,114.6
2019-03-25T07:10:29.077Z,114.6
2019-03-25T07:15:28.209Z,166.2
2019-03-25T07:20:28.855Z,166.2
2019-03-25T07:25:29.108Z,203.6
2019-03-25T07:30:28.403Z,203.6
2019-03-25T07:35:28.894Z,173.8
2019-03-25T07:40:29.226Z,173.8
2019-03-25T07:45:28.364Z,222.2
2019-03-25T07:50:28.732Z,222.2
2019-03-25T07:55:29.076Z,169.8
2019-03-25T08:00:28.405Z,169.8
2019-03-25T08:05:28.886Z,107.8
2019-03-25T08:10:29.096Z,107.8
2019-03-25T08:15:28.447Z,122
2019-03-25T08:20:28.747Z,122
2019-03-25T08:25:29.154Z,85.8
2019-03-25T08:30:28.374Z,85.8
2019-03-25T08:35:28.584Z,45.3
2019-03-25T08:40:28.997Z,45.3
2019-03-25T08:45:29.118Z,103.2
2019-03-25T08:50:28.489Z,103.2
2019-03-25T08:55:28.862Z,96.8
2019-03-25T09:00:29.220Z,96.8
2019-03-25T09:05:28.385Z,98
2019-03-25T09:10:28.791Z,98
2019-03-25T09:15:29.136Z,90.8
2019-03-25T09:20:28.435Z,90.8
2019-03-25T09:25:28.871Z,140
2019-03-25T09:30:29.210Z,140
2019-03-25T09:35:28.556Z,85.3
2019-03-25T09:40:29.010Z,85.3
2019-03-25T09:45:29.192Z,44.5
2019-03-25T09:50:28.342Z,44.5
2019-03-25T09:55:28.604Z,30.2
2019-03-25T10:00:29.013Z,30.2
2019-03-25T10:05:29.333Z,92.4
2019-03-25T10:10:29.190Z,92.4
2019-03-25T10:15:28.377Z,463.8
2019-03-25T10:20:28.635Z,463.8
2019-03-25T10:25:29.043Z,535.2
2019-03-25T10:30:29.286Z,535.2
2019-03-25T10:35:28.541Z,611
2019-03-25T10:40:29.004Z,611
2019-03-25T10:45:29.338Z,299.8
2019-03-25T10:50:28.630Z,299.8
2019-03-25T10:55:28.805Z,537.5
2019-03-25T11:00:29.081Z,537.5
2019-03-25T11:05:29.376Z,586.2
2019-03-25T11:10:28.640Z,586.2
2019-03-25T11:15:28.830Z,814
2019-03-25T11:20:29.000Z,814
2019-03-25T11:25:29.242Z,646.2
2019-03-25T11:30:28.418Z,646.2
2019-03-25T11:35:28.955Z,746.2
2019-03-25T11:40:29.323Z,746.2
2019-03-25T11:45:28.409Z,212.2
2019-03-25T11:50:28.743Z,212.2
2019-03-25T11:55:29.095Z,161.8
2019-03-25T12:00:29.225Z,161.8
2019-03-25T12:05:28.540Z,79.3
2019-03-25T12:10:28.576Z,79.3
2019-03-25T12:15:28.786Z,648.8
2019-03-25T12:20:29.123Z,648.8
2019-03-25T12:25:29.456Z,249.2
2019-03-25T12:30:28.745Z,249.2
2019-03-25T12:35:29.065Z,84.7
2019-03-25T12:40:28.954Z,84.7
2019-03-25T12:45:29.261Z,376.5
2019-03-25T12:50:28.676Z,376.5
2019-03-25T12:55:29.064Z,640.8
2019-03-25T13:00:29.263Z,640.8
2019-03-25T13:05:29.609Z,588.3
2019-03-25T13:10:29.169Z,588.3
2019-03-25T13:15:28.963Z,605
2019-03-25T13:20:29.287Z,605
2019-03-25T13:25:28.587Z,570.5
2019-03-25T13:30:28.877Z,570.5
2019-03-25T13:35:29.258Z,625.6
2019-03-25T13:40:28.689Z,625.6
2019-03-25T13:45:28.937Z,190.6
2019-03-25T13:50:29.477Z,190.6
2019-03-25T13:55:29.124Z,608
2019-03-25T14:00:29.397Z,608
2019-03-25T14:05:28.687Z,483
2019-03-25T14:10:29.261Z,483
2019-03-25T14:15:29.273Z,476
2019-03-25T14:20:29.573Z,476
2019-03-25T14:25:28.812Z,215
2019-03-25T14:30:29.160Z,215
2019-03-25T14:35:29.383Z,45.8
2019-03-25T14:40:28.800Z,45.8
2019-03-25T14:45:29.035Z,499.5
2019-03-25T14:50:29.538Z,499.5
2019-03-25T14:55:28.706Z,230.5
2019-03-25T15:00:29.065Z,230.5
2019-03-25T15:05:29.737Z,130.2
2019-03-25T15:10:29.308Z,130.2
2019-03-25T15:15:28.735Z,272.4
2019-03-25T15:20:29.287Z,272.4
2019-03-25T15:25:29.580Z,115
2019-03-25T15:30:35.940Z,115
2019-03-25T15:35:29.688Z,115.5
2019-03-25T15:40:29.019Z,115.5
2019-03-25T15:45:29.191Z,90.2
2019-03-25T15:50:29.560Z,90.2
2019-03-25T15:55:28.808Z,73.6
2019-03-25T16:00:29.199Z,73.6
2019-03-25T16:05:29.612Z,31.2
2019-03-25T16:10:29.193Z,31.2
2019-03-25T16:15:29.034Z,58
2019-03-25T16:20:29.417Z,58
2019-03-25T16:25:29.790Z,39.8
2019-03-25T16:30:28.955Z,39.8
2019-03-25T16:35:29.405Z,30
2019-03-25T16:40:29.676Z,30
2019-03-25T16:45:28.857Z,14.5
2019-03-25T16:50:29.327Z,14.5
2019-03-25T16:55:28.738Z,21
2019-03-25T17:00:29.175Z,21
2019-03-25T17:05:29.539Z,17.4
2019-03-25T17:10:29.000Z,17.4
2019-03-25T17:15:28.985Z,20.5
2019-03-25T17:20:29.775Z,20.5
2019-03-25T17:25:29.084Z,12.2
2019-03-25T17:30:29.570Z,12.2
2019-03-25T17:35:29.141Z,6.5
2019-03-25T17:40:29.924Z,6.5
2019-03-25T17:45:29.393Z,0
2019-03-25T17:50:29.800Z,0
2019-03-25T17:55:29.380Z,0
2019-03-25T18:00:29.126Z,0
2019-03-25T18:05:29.406Z,0
2019-03-25T18:10:29.046Z,0
2019-03-25T18:15:28.919Z,0
2019-03-25T18:20:29.369Z,0
2019-03-25T18:25:29.740Z,0
2019-03-25T18:30:29.018Z,0
2019-03-25T18:35:29.259Z,0
2019-03-25T18:40:28.984Z,0
2019-03-25T18:45:29.501Z,0
2019-03-25T18:50:29.868Z,0
2019-03-25T18:55:29.126Z,0
2019-03-25T19:00:29.762Z,0
2019-03-25T19:05:29.125Z,0
2019-03-25T19:10:29.702Z,0
2019-03-25T19:15:29.161Z,0
2019-03-25T19:20:29.474Z,0
2019-03-25T19:25:29.622Z,0
2019-03-25T19:30:29.994Z,0
2019-03-25T19:35:30.157Z,0
2019-03-25T19:40:29.596Z,0
2019-03-25T19:45:29.883Z,0
2019-03-25T19:50:29.136Z,0
2019-03-25T19:55:29.458Z,0
2019-03-25T20:00:29.546Z,0
2019-03-25T20:05:29.174Z,0
2019-03-25T20:10:29.820Z,0
2019-03-25T20:15:32.656Z,0
2019-03-25T20:20:29.752Z,0
2019-03-25T20:25:29.942Z,0
2019-03-25T20:30:29.255Z,0
2019-03-25T20:35:29.457Z,0
2019-03-25T20:40:29.732Z,0
2019-03-25T20:45:29.117Z,0
2019-03-25T20:50:29.418Z,0
2019-03-25T20:55:29.608Z,0
2019-03-25T21:00:29.887Z,0
2019-03-25T21:05:29.386Z,0
2019-03-25T21:10:29.851Z,0
2019-03-25T21:15:29.832Z,0
2019-03-25T21:20:29.395Z,0
2019-03-25T21:25:29.777Z,0
2019-03-25T21:30:30.023Z,0
2019-03-25T21:35:29.336Z,0
2019-03-25T21:40:29.730Z,0
2019-03-25T21:45:30.082Z,0
2019-03-25T21:50:29.379Z,0
2019-03-25T21:55:29.748Z,0
2019-03-25T22:00:29.959Z,0
2019-03-25T22:05:29.229Z,0
2019-03-25T22:10:29.278Z,0
2019-03-25T22:15:29.772Z,0
2019-03-25T22:20:29.128Z,0
2019-03-25T22:25:29.335Z,0
2019-03-25T22:30:29.726Z,0
2019-03-25T22:35:30.172Z,0
2019-03-25T22:40:29.472Z,0
2019-03-25T22:45:29.782Z,0
2019-03-25T22:50:30.257Z,0
2019-03-25T22:55:29.546Z,0
2019-03-25T23:00:29.840Z,0
2019-03-25T23:05:29.791Z,0
2019-03-25T23:10:29.855Z,0
2019-03-25T23:15:30.066Z,0
2019-03-25T23:20:29.596Z,0
2019-03-25T23:25:30.032Z,0
2019-03-25T23:30:29.325Z,0
2019-03-25T23:35:29.646Z,0
2019-03-25T23:40:29.986Z,0
2019-03-25T23:45:29.404Z,0
2019-03-25T23:50:29.790Z,0
2019-03-25T23:55:29.320Z,0
